HTMG

Morogoro Airport

Morogoro, Tanzania
METAR HTMG 191700Z 00000KT 9999 FEW023 BKN090 23/19 Q1019
Observed Flight Rules
Jun-19 @ 17:00 UTC (3 hours ago) Visual Flight Rules
Visibility Clouds
10,000+ meters
  • Few at 2,300' AGL
  • Broken at 9,000' AGL
Temperatures Readings
Current 23°C / 73°F
Dewpoint 19°C / 66°F
Humidity 78%
Altimeter 30.09" Hg
Pressure 1019 hPa
Elevation 526
METAR HTMG 191700Z 00000KT 9999 FEW023 BKN090 23/19 Q1019
Observed Flight Rules
Jun-19 @ 17:00 UTC
(3 hours ago)
VFR
Clouds
  • Few at 2,300' AGL
  • Broken at 9,000' AGL
Temperature Dewpoint
23°C / 73°F 19°C / 66°F
Humidity Altimeter Pressure
78% 30.09" Hg 1019 hPa